Terminal Aerodrome Forecast
Issued by NWS

Home | Current Version | Previous Version | Text Only | Print | Product List | Glossary On
Versions: 1 2 3 4 5 6 7 8 9 10 11 12 13 14 15
000
FTUS45 KABQ 022350
TAFGUP
TAF
KGUP 022350Z 0300/0324 23012KT P6SM VCSH SCT060 BKN100
      TEMPO 0300/0304 VRB20G30KT 6SM -TSRA BKN060CB
     FM030500 VRB05KT P6SM FEW050 BKN080
     FM031000 VRB03KT P6SM SCT100
     FM032000 28011KT P6SM FEW120=

USA.gov is the U.S. government's official web portal to all federal, state and local government web resources and services.